Time;durP1;ratioP1;P1;durP2;ratioP2;P2;SDS_P1;SDS_P2;PMS_P1;PMS_P2;Temp;Humidity;BMP_temperature;BMP_pressure;BME280_temperature;BME280_humidity;BME280_pressure;Samples;Min_cycle;Max_cycle;Signal;HPM_P1;HPM_P2
2023/12/18 00:01:42;;;;;;;147.30;97.30;;;2.30;99.90;;;;;;5054157;28;20063;-66
2023/12/18 00:04:07;;;;;;;114.78;78.25;;;2.30;99.90;;;;;;5054090;28;20371;-65
2023/12/18 00:06:33;;;;;;;97.55;67.93;;;2.30;99.90;;;;;;5054123;28;20025;-64
2023/12/18 00:08:59;;;;;;;90.70;60.80;;;2.30;99.90;;;;;;5053948;28;20529;-60
2023/12/18 00:11:25;;;;;;;108.13;70.45;;;2.30;99.90;;;;;;5052610;28;20025;-61
2023/12/18 00:13:50;;;;;;;87.03;57.83;;;2.40;99.90;;;;;;5054025;28;20024;-64
2023/12/18 00:16:16;;;;;;;85.47;57.85;;;2.30;99.90;;;;;;5053877;28;20100;-62
2023/12/18 00:18:42;;;;;;;85.90;58.35;;;2.30;99.90;;;;;;5053355;28;20024;-66
2023/12/18 00:21:08;;;;;;;109.70;71.78;;;2.30;99.90;;;;;;5052315;28;20034;-66
2023/12/18 00:23:33;;;;;;;79.20;55.60;;;2.20;99.90;;;;;;5053860;28;20028;-65
2023/12/18 00:25:59;;;;;;;69.90;49.38;;;2.10;99.90;;;;;;5053484;28;20087;-61
2023/12/18 00:28:25;;;;;;;70.35;48.70;;;2.10;99.90;;;;;;5053791;28;20032;-67
2023/12/18 00:30:50;;;;;;;69.15;47.38;;;2.20;99.90;;;;;;5053717;28;20462;-65
2023/12/18 00:33:16;;;;;;;62.03;44.72;;;2.20;99.90;;;;;;5053596;28;20379;-66
2023/12/18 00:35:41;;;;;;;62.75;44.17;;;2.30;99.90;;;;;;5053489;28;20052;-67
2023/12/18 00:38:07;;;;;;;65.38;43.92;;;2.30;99.90;;;;;;5053627;28;20048;-62
2023/12/18 00:40:33;;;;;;;65.03;44.10;;;2.30;99.90;;;;;;5053294;28;20535;-65
2023/12/18 00:42:58;;;;;;;59.25;42.05;;;2.30;99.90;;;;;;5053569;28;20047;-69
2023/12/18 00:45:24;;;;;;;68.57;46.80;;;2.20;99.90;;;;;;5053445;28;20074;-67
2023/12/18 00:47:50;;;;;;;70.63;46.15;;;2.20;99.90;;;;;;5052088;28;20028;-65
2023/12/18 00:50:15;;;;;;;55.28;39.22;;;2.20;99.90;;;;;;5053234;28;20017;-63
2023/12/18 00:52:41;;;;;;;59.83;40.85;;;2.20;99.90;;;;;;5053237;28;20047;-64
2023/12/18 00:55:07;;;;;;;57.88;39.85;;;2.10;99.90;;;;;;5053126;28;20025;-64
2023/12/18 00:57:34;;;;;;;53.35;38.67;;;2.10;99.90;;;;;;5053032;28;20212;-60
2023/12/18 01:00:00;;;;;;;48.60;35.58;;;2.10;99.90;;;;;;5053391;28;20025;-60
2023/12/18 01:02:25;;;;;;;49.45;36.25;;;2.10;99.90;;;;;;5053826;28;20103;-70
2023/12/18 01:04:51;;;;;;;44.13;30.63;;;2.10;99.90;;;;;;5053147;28;20075;-61
2023/12/18 01:07:17;;;;;;;36.28;28.42;;;2.10;99.90;;;;;;5053100;28;20025;-67
2023/12/18 01:09:43;;;;;;;39.83;29.13;;;2.10;99.90;;;;;;5052884;28;20118;-65
2023/12/18 01:12:09;;;;;;;34.38;25.75;;;2.10;99.90;;;;;;5053097;28;20029;-63
2023/12/18 01:14:34;;;;;;;39.35;28.27;;;2.10;99.90;;;;;;5053064;28;20021;-65
2023/12/18 01:17:00;;;;;;;36.78;26.65;;;2.10;99.90;;;;;;5053122;28;20441;-63
2023/12/18 01:19:26;;;;;;;61.15;40.63;;;2.10;99.90;;;;;;5053117;28;20517;-61
2023/12/18 01:21:51;;;;;;;54.00;34.22;;;2.10;99.90;;;;;;5052981;28;20082;-65
2023/12/18 01:24:18;;;;;;;43.35;30.42;;;2.00;99.90;;;;;;5052882;28;20101;-60
2023/12/18 01:26:44;;;;;;;39.45;28.45;;;2.00;99.90;;;;;;5053000;28;20022;-65
2023/12/18 01:29:09;;;;;;;40.53;29.95;;;2.00;99.90;;;;;;5052724;28;20033;-60
2023/12/18 01:31:35;;;;;;;45.35;29.95;;;2.00;99.90;;;;;;5055524;28;20089;-66
2023/12/18 01:34:01;;;;;;;42.03;29.33;;;2.00;99.90;;;;;;5057061;28;20017;-65
2023/12/18 01:36:26;;;;;;;45.80;31.70;;;2.00;99.90;;;;;;5056800;28;20021;-66
2023/12/18 01:38:52;;;;;;;40.13;29.33;;;2.00;99.90;;;;;;5056823;28;20495;-60
2023/12/18 01:41:18;;;;;;;41.83;31.73;;;2.00;99.90;;;;;;5056985;28;20025;-61
2023/12/18 01:43:44;;;;;;;35.72;26.77;;;2.00;99.90;;;;;;5056797;28;20021;-68
2023/12/18 01:46:17;;;;;;;36.17;26.92;;;1.90;99.90;;;;;;5056822;28;20028;-63
2023/12/18 01:48:43;;;;;;;36.72;26.67;;;1.90;99.90;;;;;;5056752;28;20082;-65
2023/12/18 01:51:09;;;;;;;39.08;27.10;;;1.90;99.90;;;;;;5056447;28;20029;-67
2023/12/18 01:53:42;;;;;;;37.35;26.33;;;1.90;99.90;;;;;;5056767;28;20031;-66
2023/12/18 01:56:09;;;;;;;30.40;22.77;;;1.90;99.90;;;;;;5056765;28;20078;-63
2023/12/18 01:58:36;;;;;;;39.85;28.60;;;1.90;99.90;;;;;;5056320;28;20120;-65
2023/12/18 02:01:02;;;;;;;32.63;22.90;;;1.80;99.90;;;;;;5056562;28;20100;-62
2023/12/18 02:03:29;;;;;;;30.67;22.60;;;1.90;99.90;;;;;;5056518;28;20025;-63
2023/12/18 02:05:56;;;;;;;29.95;21.77;;;1.90;99.90;;;;;;5056223;28;20021;-63
2023/12/18 02:08:23;;;;;;;35.45;24.92;;;1.80;99.90;;;;;;5056386;28;20029;-62
2023/12/18 02:10:49;;;;;;;44.25;30.48;;;1.80;99.90;;;;;;5056304;28;20047;-59
2023/12/18 02:13:15;;;;;;;46.72;32.83;;;1.80;99.90;;;;;;5056177;28;20485;-63
2023/12/18 02:15:41;;;;;;;89.50;56.60;;;1.60;99.90;;;;;;5056232;28;20047;-63
2023/12/18 02:18:07;;;;;;;88.45;51.90;;;1.60;99.90;;;;;;5056152;28;20382;-70
2023/12/18 02:20:32;;;;;;;61.85;39.50;;;1.50;99.90;;;;;;5055899;28;20021;-61
2023/12/18 02:22:58;;;;;;;68.18;41.25;;;1.50;99.90;;;;;;5056257;28;20052;-59
2023/12/18 02:25:24;;;;;;;67.88;42.10;;;1.60;99.90;;;;;;5055997;28;20032;-62
2023/12/18 02:27:50;;;;;;;66.15;42.20;;;1.60;99.90;;;;;;5054815;28;20028;-60
2023/12/18 02:30:17;;;;;;;87.78;49.50;;;1.70;99.90;;;;;;5055883;28;20021;-66
2023/12/18 02:32:44;;;;;;;66.05;40.53;;;1.70;99.90;;;;;;5055916;28;20032;-64
2023/12/18 02:35:10;;;;;;;58.78;38.67;;;1.70;99.90;;;;;;5055723;28;20021;-66
2023/12/18 02:37:35;;;;;;;73.80;44.15;;;1.70;99.90;;;;;;5055774;28;20100;-67
2023/12/18 02:40:02;;;;;;;49.03;33.80;;;1.70;99.90;;;;;;5055804;28;20028;-66
2023/12/18 02:42:28;;;;;;;49.00;32.78;;;1.70;99.90;;;;;;5054901;28;20434;-65
2023/12/18 02:44:56;;;;;;;41.55;28.52;;;1.60;99.90;;;;;;5055628;28;20021;-59
2023/12/18 02:47:22;;;;;;;38.00;25.75;;;1.60;99.90;;;;;;5055797;28;20078;-67
2023/12/18 02:49:48;;;;;;;37.40;24.75;;;1.60;99.90;;;;;;5055335;28;20564;-62
2023/12/18 02:52:14;;;;;;;37.92;26.25;;;1.60;99.90;;;;;;5055486;28;20017;-60
2023/12/18 02:54:40;;;;;;;36.63;25.50;;;1.60;99.90;;;;;;5055544;28;20433;-63
2023/12/18 02:57:06;;;;;;;41.58;29.63;;;1.60;99.90;;;;;;5055304;28;20051;-64
2023/12/18 02:59:31;;;;;;;39.55;27.92;;;1.50;99.90;;;;;;5055365;28;20025;-58
2023/12/18 03:01:57;;;;;;;35.22;25.73;;;1.40;99.90;;;;;;5055475;28;20578;-67
2023/12/18 03:04:23;;;;;;;34.00;23.10;;;1.30;99.90;;;;;;5055036;28;20379;-61
2023/12/18 03:06:49;;;;;;;41.40;27.83;;;1.40;99.90;;;;;;5055172;28;20066;-66
2023/12/18 03:09:15;;;;;;;38.85;27.92;;;1.40;99.90;;;;;;5055257;28;20033;-67
2023/12/18 03:11:42;;;;;;;34.20;24.20;;;1.40;99.90;;;;;;5055220;28;20025;-62
2023/12/18 03:14:08;;;;;;;37.63;25.63;;;1.40;99.90;;;;;;5055207;28;20017;-66
2023/12/18 03:16:34;;;;;;;41.17;29.33;;;1.40;99.90;;;;;;5055001;28;20024;-61
2023/12/18 03:19:00;;;;;;;32.83;23.95;;;1.30;99.90;;;;;;5054942;28;20021;-70
2023/12/18 03:21:26;;;;;;;27.58;21.17;;;1.30;99.90;;;;;;5054907;28;20044;-62
2023/12/18 03:23:52;;;;;;;31.85;22.95;;;1.30;99.90;;;;;;5054895;28;20017;-65
2023/12/18 03:26:17;;;;;;;33.45;22.35;;;1.30;99.90;;;;;;5054964;28;20021;-62
2023/12/18 03:28:43;;;;;;;27.05;20.60;;;1.30;99.90;;;;;;5054802;28;20033;-66
2023/12/18 03:31:14;;;;;;;27.88;20.20;;;1.40;99.90;;;;;;5054721;28;20021;-63
2023/12/18 03:33:40;;;;;;;25.30;18.17;;;1.40;99.90;;;;;;5054734;28;20021;-61
2023/12/18 03:36:06;;;;;;;30.90;19.67;;;1.40;99.90;;;;;;5054817;28;20033;-65
2023/12/18 03:38:32;;;;;;;36.20;24.85;;;1.40;99.90;;;;;;5054670;28;20086;-62
2023/12/18 03:40:57;;;;;;;43.25;30.13;;;1.40;99.90;;;;;;5054737;28;20420;-63
2023/12/18 03:43:24;;;;;;;37.65;26.55;;;1.30;99.90;;;;;;5054760;28;20033;-62
2023/12/18 03:45:49;;;;;;;31.60;23.00;;;1.20;99.90;;;;;;5054509;28;20017;-65
2023/12/18 03:48:16;;;;;;;29.67;22.13;;;1.10;99.90;;;;;;5054397;28;20582;-61
2023/12/18 03:50:42;;;;;;;31.60;22.52;;;1.10;99.90;;;;;;5054575;28;20471;-64
2023/12/18 03:53:08;;;;;;;26.35;19.30;;;1.20;99.90;;;;;;5054407;28;20103;-62
2023/12/18 03:55:34;;;;;;;22.98;18.52;;;1.20;99.90;;;;;;5054385;28;20055;-66
2023/12/18 03:58:00;;;;;;;30.90;22.02;;;1.20;99.90;;;;;;5054258;28;20053;-66
2023/12/18 04:00:27;;;;;;;29.08;20.80;;;1.20;99.90;;;;;;5054269;28;20036;-67
2023/12/18 04:02:53;;;;;;;22.58;17.27;;;1.20;99.90;;;;;;5053963;28;20025;-60
2023/12/18 04:05:19;;;;;;;24.48;17.48;;;1.20;99.90;;;;;;5054320;28;20463;-66
2023/12/18 04:07:44;;;;;;;20.45;16.23;;;1.20;99.90;;;;;;5054110;28;20044;-64
2023/12/18 04:10:10;;;;;;;24.35;18.27;;;1.20;99.90;;;;;;5054181;28;20040;-63
2023/12/18 04:12:37;;;;;;;22.92;16.15;;;1.20;99.90;;;;;;5054200;28;20028;-62
2023/12/18 04:15:04;;;;;;;28.48;20.13;;;1.20;99.90;;;;;;5054051;28;20025;-59
2023/12/18 04:17:30;;;;;;;21.73;16.40;;;1.20;99.90;;;;;;5053699;28;20056;-62
2023/12/18 04:19:56;;;;;;;21.02;15.88;;;1.10;99.90;;;;;;5054217;28;20084;-62
2023/12/18 04:22:21;;;;;;;22.63;17.15;;;1.10;99.90;;;;;;5053986;28;20360;-67
2023/12/18 04:24:47;;;;;;;20.30;14.38;;;1.20;99.90;;;;;;5053886;28;20028;-64
2023/12/18 04:27:13;;;;;;;20.45;15.05;;;1.20;99.90;;;;;;5053762;28;20021;-64
2023/12/18 04:29:38;;;;;;;16.02;13.88;;;1.20;99.90;;;;;;5053651;28;20033;-66
2023/12/18 04:32:05;;;;;;;19.33;14.60;;;1.20;99.90;;;;;;5053431;28;20527;-67
2023/12/18 04:34:31;;;;;;;19.92;14.57;;;1.20;99.90;;;;;;5053677;28;20029;-65
2023/12/18 04:36:56;;;;;;;21.30;15.93;;;1.20;99.90;;;;;;5053664;28;20024;-61
2023/12/18 04:39:22;;;;;;;19.10;14.85;;;1.20;99.90;;;;;;5053650;28;20037;-68
2023/12/18 04:41:48;;;;;;;17.90;14.35;;;1.20;99.90;;;;;;5053493;28;20032;-63
2023/12/18 04:44:14;;;;;;;24.30;15.95;;;1.20;99.90;;;;;;5053569;28;20076;-68
2023/12/18 04:46:40;;;;;;;19.92;15.20;;;1.20;99.90;;;;;;5053356;28;20096;-65
2023/12/18 04:49:06;;;;;;;36.75;25.42;;;1.20;99.90;;;;;;5053311;28;20025;-60
2023/12/18 04:51:32;;;;;;;25.85;19.70;;;1.10;99.90;;;;;;5053691;28;20017;-63
2023/12/18 04:53:58;;;;;;;23.25;18.50;;;1.00;99.90;;;;;;5053421;28;20151;-64
2023/12/18 04:56:24;;;;;;;24.90;16.95;;;1.00;99.90;;;;;;5052893;28;20091;-62
2023/12/18 04:58:50;;;;;;;20.80;15.52;;;1.00;99.90;;;;;;5053405;28;20028;-66
2023/12/18 05:01:16;;;;;;;18.45;14.80;;;1.00;99.90;;;;;;5053194;28;20029;-64
2023/12/18 05:03:41;;;;;;;22.17;16.33;;;1.00;99.90;;;;;;5053201;28;20025;-66
2023/12/18 05:06:21;;;;;;;21.23;15.82;;;1.00;99.90;;;;;;5052887;28;20463;-64
2023/12/18 05:08:48;;;;;;;22.20;15.65;;;1.00;99.90;;;;;;5053133;28;20537;-67
2023/12/18 05:11:16;;;;;;;23.35;15.23;;;1.10;99.90;;;;;;5051835;28;20109;-62
2023/12/18 05:13:41;;;;;;;20.77;16.42;;;1.10;99.90;;;;;;5053166;28;20021;-67
2023/12/18 05:16:07;;;;;;;38.03;26.45;;;1.10;99.90;;;;;;5053135;28;20518;-63
2023/12/18 05:18:33;;;;;;;54.53;36.00;;;1.10;99.90;;;;;;5053043;28;20075;-66
2023/12/18 05:20:59;;;;;;;48.22;32.97;;;1.00;99.90;;;;;;5053166;28;20095;-63
2023/12/18 05:23:25;;;;;;;128.98;84.65;;;1.00;99.90;;;;;;5053061;28;20422;-65
2023/12/18 05:25:51;;;;;;;109.47;74.18;;;1.00;99.90;;;;;;5052878;28;20083;-68
2023/12/18 05:28:18;;;;;;;120.47;81.97;;;0.90;99.90;;;;;;5052892;28;20448;-65
2023/12/18 05:30:43;;;;;;;114.03;75.65;;;0.80;99.90;;;;;;5052857;28;20029;-65
2023/12/18 05:33:10;;;;;;;87.85;58.72;;;0.70;99.90;;;;;;5052860;28;20021;-67
2023/12/18 05:35:36;;;;;;;74.63;50.40;;;0.70;99.90;;;;;;5053178;28;20071;-63
2023/12/18 05:38:01;;;;;;;76.57;51.63;;;0.80;99.90;;;;;;5052955;28;20025;-64
2023/12/18 05:40:27;;;;;;;59.53;43.15;;;0.90;99.90;;;;;;5052900;28;20021;-60
2023/12/18 05:42:53;;;;;;;52.80;37.83;;;0.90;99.90;;;;;;5053429;28;20028;-65
2023/12/18 05:45:18;;;;;;;47.50;33.03;;;0.90;99.90;;;;;;5052659;28;20542;-66
2023/12/18 05:47:45;;;;;;;44.67;32.22;;;0.90;99.90;;;;;;5052895;28;20024;-63
2023/12/18 05:50:11;;;;;;;40.72;29.52;;;0.90;99.90;;;;;;5052710;28;20104;-66
2023/12/18 05:52:37;;;;;;;37.53;26.95;;;1.00;99.90;;;;;;5052911;28;20025;-61
2023/12/18 05:55:03;;;;;;;32.75;25.40;;;1.00;99.90;;;;;;5052825;28;20028;-61
2023/12/18 05:57:29;;;;;;;32.85;24.20;;;1.00;99.90;;;;;;5052346;28;20474;-65
2023/12/18 05:59:55;;;;;;;32.70;23.48;;;1.00;99.90;;;;;;5051189;28;20028;-66
2023/12/18 06:02:21;;;;;;;32.15;22.17;;;1.00;99.90;;;;;;5052629;28;20418;-67
2023/12/18 06:04:46;;;;;;;29.58;21.45;;;1.00;99.90;;;;;;5052302;28;20021;-62
2023/12/18 06:07:12;;;;;;;25.90;18.58;;;1.00;99.90;;;;;;5052531;28;20188;-68
2023/12/18 06:09:39;;;;;;;27.58;19.77;;;1.00;99.90;;;;;;5052426;28;20029;-64
2023/12/18 06:12:05;;;;;;;29.13;21.95;;;1.00;99.90;;;;;;5052462;28;20017;-62
2023/12/18 06:14:31;;;;;;;20.25;15.98;;;1.00;99.90;;;;;;5052251;28;20382;-68
2023/12/18 06:16:57;;;;;;;21.95;16.55;;;1.00;99.90;;;;;;5052456;28;20025;-65
2023/12/18 06:19:22;;;;;;;22.75;17.05;;;1.00;99.90;;;;;;5055914;28;20021;-60
2023/12/18 06:21:48;;;;;;;24.60;17.98;;;1.00;99.90;;;;;;5056013;28;20187;-63
2023/12/18 06:24:14;;;;;;;23.17;16.83;;;1.00;99.90;;;;;;5054425;28;20021;-65
2023/12/18 06:26:39;;;;;;;27.17;20.02;;;1.00;99.90;;;;;;5054579;28;20443;-61
2023/12/18 06:29:05;;;;;;;26.13;19.30;;;1.00;99.90;;;;;;5055742;28;20032;-64
2023/12/18 06:31:31;;;;;;;30.05;21.63;;;1.10;99.90;;;;;;5055923;28;20025;-62
2023/12/18 06:33:56;;;;;;;25.48;18.73;;;1.10;99.90;;;;;;5055890;28;20074;-61
2023/12/18 06:36:22;;;;;;;36.03;24.20;;;1.00;99.90;;;;;;5055649;28;20433;-60
2023/12/18 06:38:48;;;;;;;59.28;38.28;;;1.00;99.90;;;;;;5055137;28;20036;-65
2023/12/18 06:41:14;;;;;;;32.42;23.98;;;1.10;99.90;;;;;;5057686;28;20024;-67
2023/12/18 06:43:40;;;;;;;43.25;31.13;;;1.10;99.90;;;;;;5054169;28;20025;-61
2023/12/18 06:46:06;;;;;;;52.75;34.92;;;1.10;99.90;;;;;;5063564;28;20501;-65
2023/12/18 06:48:33;;;;;;;66.65;41.15;;;1.10;99.90;;;;;;5055892;28;20044;-60
2023/12/18 06:50:59;;;;;;;98.35;60.75;;;1.10;99.90;;;;;;5074943;28;20027;-63
2023/12/18 06:53:25;;;;;;;99.28;64.93;;;1.10;99.90;;;;;;5075375;28;20534;-69
2023/12/18 06:55:51;;;;;;;66.65;46.35;;;1.20;99.90;;;;;;5075080;28;20021;-64
2023/12/18 06:58:17;;;;;;;74.13;47.83;;;1.10;99.90;;;;;;5064295;28;20424;-67
2023/12/18 07:00:43;;;;;;;78.05;51.72;;;1.10;99.90;;;;;;5041177;28;20104;-69
2023/12/18 07:03:09;;;;;;;123.80;81.32;;;1.20;99.90;;;;;;5040365;28;20065;-65
2023/12/18 07:05:35;;;;;;;129.63;79.85;;;1.20;99.90;;;;;;5036357;28;20460;-67
2023/12/18 07:08:01;;;;;;;82.45;56.78;;;1.20;99.90;;;;;;5042573;28;20056;-67
2023/12/18 07:10:26;;;;;;;91.93;59.45;;;1.20;99.90;;;;;;5042710;28;20021;-61
2023/12/18 07:12:52;;;;;;;120.75;72.75;;;1.20;99.90;;;;;;5042606;28;20056;-65
2023/12/18 07:15:19;;;;;;;156.07;96.70;;;1.30;99.90;;;;;;5038742;28;20061;-59
2023/12/18 07:17:45;;;;;;;116.53;78.13;;;1.30;99.90;;;;;;5049704;28;20474;-62
2023/12/18 07:20:12;;;;;;;147.60;89.80;;;1.20;99.90;;;;;;5052545;28;20048;-70
2023/12/18 07:22:39;;;;;;;98.90;67.72;;;1.20;99.90;;;;;;5051982;28;20025;-61
2023/12/18 07:25:09;;;;;;;109.78;72.47;;;1.30;99.90;;;;;;5042745;28;20049;-69
2023/12/18 07:27:35;;;;;;;89.55;61.92;;;1.30;99.90;;;;;;5037392;28;20070;-70
2023/12/18 07:30:05;;;;;;;98.72;64.03;;;1.30;99.90;;;;;;5049757;28;20496;-62
2023/12/18 07:32:31;;;;;;;94.50;61.80;;;1.40;99.90;;;;;;5042919;28;20602;-71
2023/12/18 07:34:59;;;;;;;81.70;55.03;;;1.50;99.90;;;;;;5046172;28;20025;-69
2023/12/18 07:37:29;;;;;;;181.85;111.25;;;1.50;99.90;;;;;;5046692;28;20025;-63
2023/12/18 07:39:58;;;;;;;267.08;160.32;;;1.60;99.90;;;;;;5047683;28;20028;-64
2023/12/18 07:42:25;;;;;;;199.10;131.35;;;1.80;99.90;;;;;;5034409;28;20029;-67
2023/12/18 07:44:52;;;;;;;176.52;113.10;;;2.00;99.90;;;;;;5034404;28;20088;-66
2023/12/18 07:47:17;;;;;;;196.82;125.88;;;2.40;99.90;;;;;;5030775;28;20116;-65
2023/12/18 07:49:44;;;;;;;165.23;108.47;;;2.80;99.90;;;;;;5043360;28;20120;-65
2023/12/18 07:52:09;;;;;;;158.35;106.47;;;3.30;99.20;;;;;;5028404;28;20065;-66
2023/12/18 07:54:35;;;;;;;172.05;111.50;;;4.80;96.80;;;;;;5029527;28;20049;-65
2023/12/18 07:57:02;;;;;;;197.32;127.05;;;7.00;78.60;;;;;;5036026;28;20041;-67
2023/12/18 07:59:29;;;;;;;198.23;128.95;;;8.40;61.70;;;;;;5052551;28;20021;-71
2023/12/18 08:01:54;;;;;;;232.32;141.88;;;9.60;55.60;;;;;;5049548;28;20025;-64
2023/12/18 08:04:20;;;;;;;176.50;115.55;;;10.50;52.00;;;;;;5051633;28;20479;-65
2023/12/18 08:06:52;;;;;;;177.68;117.95;;;11.30;50.40;;;;;;5052609;28;20025;-66
2023/12/18 08:09:18;;;;;;;141.98;97.60;;;12.10;46.20;;;;;;5051100;28;20029;-63
2023/12/18 08:11:44;;;;;;;131.10;95.35;;;12.90;45.50;;;;;;5051092;28;20478;-65
2023/12/18 08:14:10;;;;;;;113.40;82.45;;;13.80;43.40;;;;;;5049644;28;20544;-64
2023/12/18 08:16:36;;;;;;;106.35;76.63;;;14.50;41.40;;;;;;5048203;28;20033;-75
2023/12/18 08:19:02;;;;;;;122.88;88.38;;;14.90;39.00;;;;;;5041790;28;20017;-66
2023/12/18 08:21:28;;;;;;;119.05;86.75;;;14.70;38.50;;;;;;5031363;28;20391;-63
2023/12/18 08:23:53;;;;;;;95.93;73.03;;;14.60;38.90;;;;;;5051069;28;20029;-63
2023/12/18 08:26:19;;;;;;;94.10;74.60;;;14.80;39.50;;;;;;5049904;28;20544;-66
2023/12/18 08:28:45;;;;;;;96.22;76.30;;;15.10;38.80;;;;;;5038057;28;20035;-64
2023/12/18 08:31:11;;;;;;;83.90;68.38;;;15.50;38.00;;;;;;5046603;28;20166;-68
2023/12/18 08:33:38;;;;;;;72.68;60.58;;;15.90;37.70;;;;;;5050957;28;20045;-69
2023/12/18 08:36:04;;;;;;;64.60;55.92;;;15.80;37.90;;;;;;5048747;28;20033;-65
2023/12/18 08:38:30;;;;;;;57.33;48.53;;;15.80;37.10;;;;;;5044756;28;20058;-64
2023/12/18 08:40:56;;;;;;;51.45;44.97;;;15.60;37.80;;;;;;5041293;28;20021;-70
2023/12/18 08:43:22;;;;;;;77.38;64.68;;;15.90;38.00;;;;;;5038676;28;20053;-70
2023/12/18 08:45:48;;;;;;;80.32;64.85;;;15.60;36.60;;;;;;5037808;28;20100;-66
2023/12/18 08:48:14;;;;;;;77.50;65.55;;;15.00;38.90;;;;;;5043389;28;20112;-65
2023/12/18 08:50:40;;;;;;;100.30;83.15;;;14.80;40.20;;;;;;5037878;28;20029;-62
2023/12/18 08:53:05;;;;;;;93.15;78.53;;;14.70;39.80;;;;;;5036175;28;20025;-68
2023/12/18 08:55:32;;;;;;;101.18;85.05;;;14.30;40.50;;;;;;5050299;28;20410;-67
2023/12/18 08:57:57;;;;;;;113.55;94.60;;;13.70;41.60;;;;;;5033323;28;20050;-66
2023/12/18 09:00:25;;;;;;;123.93;102.40;;;13.40;42.10;;;;;;5049801;28;20048;-69
2023/12/18 09:02:51;;;;;;;104.75;89.70;;;13.10;42.90;;;;;;5039211;28;20025;-67
2023/12/18 09:05:17;;;;;;;100.43;86.80;;;13.10;43.00;;;;;;5041234;28;20037;-67
2023/12/18 09:07:43;;;;;;;88.43;77.55;;;13.20;43.70;;;;;;5034727;28;20025;-64
2023/12/18 09:10:11;;;;;;;91.07;80.50;;;13.20;43.40;;;;;;5031428;28;20515;-67
2023/12/18 09:12:37;;;;;;;108.82;93.20;;;13.30;44.20;;;;;;5045932;28;20040;-61
2023/12/18 09:15:03;;;;;;;95.68;85.25;;;13.30;44.40;;;;;;5043070;28;20028;-65
2023/12/18 09:17:29;;;;;;;98.30;87.15;;;13.40;43.70;;;;;;5039127;28;20026;-72
2023/12/18 09:19:55;;;;;;;114.57;100.00;;;13.50;43.50;;;;;;5035112;28;20048;-61
2023/12/18 09:22:20;;;;;;;95.18;84.80;;;13.60;42.90;;;;;;5046154;28;21888;-65
2023/12/18 09:24:46;;;;;;;135.88;115.03;;;13.50;43.90;;;;;;5033976;28;20029;-67
2023/12/18 09:27:13;;;;;;;111.15;98.90;;;13.40;43.30;;;;;;5038658;28;20027;-63
2023/12/18 09:29:38;;;;;;;98.13;87.43;;;13.30;44.80;;;;;;5038317;28;20037;-68
2023/12/18 09:32:04;;;;;;;97.47;85.90;;;13.40;43.70;;;;;;5059771;28;20028;-71
2023/12/18 09:34:30;;;;;;;89.75;79.97;;;13.50;43.30;;;;;;5035782;28;20112;-63
2023/12/18 09:36:55;;;;;;;78.90;70.15;;;13.50;43.80;;;;;;5033293;28;20356;-70
2023/12/18 09:39:21;;;;;;;72.57;64.97;;;13.70;43.10;;;;;;5036677;28;20037;-67
2023/12/18 09:41:47;;;;;;;72.57;64.15;;;13.80;42.60;;;;;;5032666;28;20541;-66
2023/12/18 09:44:13;;;;;;;69.32;61.88;;;13.90;42.80;;;;;;5037242;28;20071;-66
2023/12/18 09:46:38;;;;;;;67.30;60.22;;;14.00;43.00;;;;;;5036226;28;20025;-68
2023/12/18 09:49:04;;;;;;;73.72;64.20;;;14.10;42.30;;;;;;5033589;28;20079;-66
2023/12/18 09:51:32;;;;;;;68.40;61.20;;;14.20;42.30;;;;;;5036445;28;20032;-67
2023/12/18 09:53:59;;;;;;;81.07;72.32;;;14.10;42.10;;;;;;5038019;28;20027;-67
2023/12/18 09:56:25;;;;;;;70.90;63.40;;;14.30;42.90;;;;;;5036904;28;20631;-62
2023/12/18 09:58:54;;;;;;;66.07;58.75;;;14.30;41.60;;;;;;5037547;28;20317;-68
2023/12/18 10:01:21;;;;;;;64.85;57.97;;;14.60;40.80;;;;;;5042982;28;20503;-64
2023/12/18 10:03:46;;;;;;;59.80;53.42;;;14.80;40.80;;;;;;5037298;28;20479;-70
2023/12/18 10:06:12;;;;;;;61.55;55.13;;;14.90;40.20;;;;;;5035489;28;21748;-65
2023/12/18 10:08:39;;;;;;;82.82;73.50;;;15.00;40.40;;;;;;5035642;28;20063;-66
2023/12/18 10:11:05;;;;;;;75.63;67.57;;;15.10;40.00;;;;;;5032969;28;20087;-69
2023/12/18 10:13:34;;;;;;;65.38;58.58;;;15.00;40.60;;;;;;5043701;28;20025;-66
2023/12/18 10:16:00;;;;;;;59.92;53.58;;;15.10;39.90;;;;;;5042792;28;20032;-66
2023/12/18 10:18:26;;;;;;;54.95;49.38;;;15.20;39.90;;;;;;5044068;28;20022;-67
2023/12/18 10:20:57;;;;;;;68.78;61.45;;;15.30;40.90;;;;;;5044675;28;20027;-64
2023/12/18 10:23:23;;;;;;;67.63;59.97;;;15.40;40.90;;;;;;5049533;28;20112;-65
2023/12/18 10:25:49;;;;;;;61.42;54.97;;;15.30;40.20;;;;;;5050242;28;20421;-65
2023/12/18 10:28:15;;;;;;;62.83;56.22;;;15.30;39.60;;;;;;5049036;28;20013;-63
2023/12/18 10:30:41;;;;;;;62.58;56.08;;;15.60;39.70;;;;;;5049888;28;20021;-64
2023/12/18 10:33:09;;;;;;;62.92;56.35;;;15.80;39.40;;;;;;5048480;28;20078;-63
2023/12/18 10:35:35;;;;;;;64.72;58.05;;;15.80;39.00;;;;;;5050049;28;20108;-65
2023/12/18 10:38:01;;;;;;;60.65;54.53;;;16.00;38.80;;;;;;5048291;28;20134;-67
2023/12/18 10:40:28;;;;;;;57.85;51.88;;;16.10;38.80;;;;;;5049527;28;20487;-65
2023/12/18 10:43:23;;;;;;;54.58;49.00;;;16.20;38.60;;;;;;5049206;28;20021;-73
2023/12/18 10:45:52;;;;;;;48.70;43.80;;;16.40;38.90;;;;;;5051095;28;20028;-65
2023/12/18 10:48:19;;;;;;;43.42;39.10;;;16.50;37.90;;;;;;5052481;28;20433;-70
2023/12/18 10:50:53;;;;;;;43.65;39.10;;;16.50;37.80;;;;;;5052827;28;20116;-68
2023/12/18 10:53:19;;;;;;;42.72;38.50;;;16.50;38.40;;;;;;5053115;28;20052;-62
2023/12/18 10:55:46;;;;;;;40.38;36.25;;;16.50;38.50;;;;;;5053648;28;20082;-63
2023/12/18 10:58:13;;;;;;;37.47;33.67;;;16.50;39.30;;;;;;5054128;28;20427;-68
2023/12/18 11:00:39;;;;;;;31.95;28.27;;;16.20;39.00;;;;;;5052231;28;20562;-69
2023/12/18 11:03:06;;;;;;;30.13;27.13;;;16.20;39.20;;;;;;5053076;28;20449;-62
2023/12/18 11:05:33;;;;;;;26.65;24.25;;;16.20;40.30;;;;;;5050511;28;20033;-70
2023/12/18 11:07:59;;;;;;;24.85;22.55;;;16.30;40.10;;;;;;5054013;28;20088;-64
2023/12/18 11:10:25;;;;;;;21.83;19.73;;;16.20;39.80;;;;;;5053500;28;20119;-62
2023/12/18 11:13:01;;;;;;;21.23;19.23;;;16.30;40.00;;;;;;5055356;28;20024;-66
2023/12/18 11:15:38;;;;;;;22.65;20.38;;;16.50;40.40;;;;;;5053293;28;20426;-66
2023/12/18 11:18:29;;;;;;;27.73;25.02;;;16.50;40.30;;;;;;5047430;28;20100;-69
2023/12/18 11:20:57;;;;;;;26.90;24.27;;;16.70;38.60;;;;;;5040065;28;20091;-67
2023/12/18 11:23:29;;;;;;;31.45;28.27;;;16.60;39.10;;;;;;5034205;28;20025;-65
2023/12/18 11:25:54;;;;;;;32.53;29.20;;;16.70;39.50;;;;;;5034679;28;20028;-67
2023/12/18 11:28:24;;;;;;;31.48;28.38;;;16.60;38.70;;;;;;5034782;28;20380;-67
2023/12/18 11:30:50;;;;;;;34.30;30.98;;;16.60;39.60;;;;;;5035130;28;20472;-62
2023/12/18 11:33:16;;;;;;;28.20;25.60;;;16.60;39.40;;;;;;5035039;28;20032;-65
2023/12/18 11:35:48;;;;;;;23.95;21.75;;;16.60;39.50;;;;;;5034946;28;20018;-68
2023/12/18 11:38:18;;;;;;;24.27;21.88;;;16.80;38.40;;;;;;5034622;28;20346;-66
2023/12/18 11:40:49;;;;;;;22.98;20.95;;;16.90;37.90;;;;;;5033959;28;20044;-67
2023/12/18 11:43:35;;;;;;;21.05;19.15;;;16.70;38.80;;;;;;5034923;28;20407;-61
2023/12/18 11:46:01;;;;;;;32.00;28.85;;;16.70;38.80;;;;;;5034648;28;20060;-66
2023/12/18 11:48:27;;;;;;;32.47;29.33;;;16.60;41.30;;;;;;5033214;28;20029;-64
2023/12/18 11:50:53;;;;;;;23.88;21.75;;;16.70;39.90;;;;;;5034210;28;20032;-64
2023/12/18 11:53:31;;;;;;;23.27;21.00;;;16.90;38.90;;;;;;5034135;28;20100;-63
2023/12/18 11:55:57;;;;;;;22.80;20.70;;;17.20;37.50;;;;;;5031875;28;20430;-65
2023/12/18 11:58:27;;;;;;;22.95;20.75;;;17.40;38.00;;;;;;5033241;28;20045;-65
2023/12/18 12:00:55;;;;;;;28.10;25.38;;;17.70;37.80;;;;;;5033881;28;20029;-65
2023/12/18 12:03:22;;;;;;;22.48;20.33;;;17.70;36.70;;;;;;5036111;28;20029;-66
2023/12/18 12:05:48;;;;;;;22.30;20.23;;;17.70;36.90;;;;;;5033131;28;20425;-68
2023/12/18 12:08:15;;;;;;;41.38;36.92;;;17.70;36.60;;;;;;5034395;28;20053;-69
2023/12/18 12:10:45;;;;;;;42.92;38.33;;;17.60;37.10;;;;;;5034240;28;20063;-67
2023/12/18 12:13:21;;;;;;;41.58;37.33;;;17.10;38.90;;;;;;5032945;28;20518;-66
2023/12/18 12:15:59;;;;;;;47.30;42.50;;;16.70;40.20;;;;;;5033189;28;20025;-68
2023/12/18 12:18:29;;;;;;;49.10;43.90;;;16.30;40.20;;;;;;5034451;28;20087;-66
2023/12/18 12:20:56;;;;;;;43.42;39.03;;;16.10;40.60;;;;;;5034141;28;20017;-66
2023/12/18 12:23:23;;;;;;;42.17;37.72;;;16.10;42.40;;;;;;5034023;28;20021;-67
2023/12/18 12:25:51;;;;;;;46.53;41.80;;;16.10;41.80;;;;;;5034272;28;20022;-66
2023/12/18 12:28:17;;;;;;;65.75;56.20;;;15.90;42.40;;;;;;5033790;28;20018;-65